createdAt,value
2018-12-13T00:00:23.959Z,102232.06
2018-12-13T00:02:51.409Z,102229.09
2018-12-13T00:05:18.885Z,102221.88
2018-12-13T00:07:46.362Z,102228.08
2018-12-13T00:10:13.850Z,102220.72
2018-12-13T00:12:41.324Z,102222.78
2018-12-13T00:15:08.918Z,102216.55
2018-12-13T00:20:14.153Z,102208.60
2018-12-13T00:22:41.597Z,102202.17
2018-12-13T00:25:09.340Z,102202.09
2018-12-13T00:27:36.779Z,102197.63
2018-12-13T00:30:05.143Z,102193.47
2018-12-13T00:32:32.641Z,102200.74
2018-12-13T00:35:00.124Z,102200.38
2018-12-13T00:37:27.610Z,102202.91
2018-12-13T00:39:55.075Z,102194.77
2018-12-13T00:42:22.546Z,102192.44
2018-12-13T00:44:50.006Z,102191.82
2018-12-13T00:47:17.494Z,102197.48
2018-12-13T00:49:44.976Z,102194.15
2018-12-13T00:52:12.405Z,102187.05
2018-12-13T00:54:39.874Z,102194.94
2018-12-13T00:57:07.374Z,102196.65
2018-12-13T00:59:34.845Z,102186.51
2018-12-13T01:02:02.300Z,102180.92
2018-12-13T01:04:29.798Z,102176.37
2018-12-13T01:06:57.837Z,102174.19
2018-12-13T01:09:25.319Z,102171.26
2018-12-13T01:11:53.084Z,102172.73
2018-12-13T01:14:20.561Z,102173.23
2018-12-13T01:16:48.036Z,102175.45
2018-12-13T01:19:15.529Z,102169.55
2018-12-13T01:21:43.011Z,102173.44
2018-12-13T01:24:11.329Z,102171.84
2018-12-13T01:26:38.820Z,102173.89
2018-12-13T01:29:06.294Z,102177.23
2018-12-13T01:31:33.805Z,102169.42
2018-12-13T01:34:01.251Z,102170.91
2018-12-13T01:36:28.719Z,102166.48
2018-12-13T01:38:57.271Z,102174.34
2018-12-13T01:41:24.725Z,102170.24
2018-12-13T01:43:52.186Z,102167.10
2018-12-13T01:46:19.656Z,102164.83
2018-12-13T01:48:47.151Z,102161.91
2018-12-13T01:51:14.615Z,102163.95
2018-12-13T01:53:42.079Z,102159.39
2018-12-13T01:56:09.528Z,102158.33
2018-12-13T01:58:37.007Z,102151.13
2018-12-13T02:01:04.469Z,102149.73
2018-12-13T02:03:31.941Z,102150.31
2018-12-13T02:05:59.412Z,102151.06
2018-12-13T02:08:27.615Z,102149.47
2018-12-13T02:10:55.089Z,102145.25
2018-12-13T02:13:22.580Z,102142.31
2018-12-13T02:15:50.016Z,102139.62
2018-12-13T02:18:17.491Z,102136.05
2018-12-13T02:20:44.939Z,102139.79
2018-12-13T02:23:12.451Z,102140.36
2018-12-13T02:25:40.071Z,102140.50
2018-12-13T02:28:07.574Z,102136.91
2018-12-13T02:30:36.820Z,102129.33
2018-12-13T02:33:04.299Z,102128.64
2018-12-13T02:35:31.772Z,102129.03
2018-12-13T02:37:59.250Z,102132.50
2018-12-13T02:40:27.811Z,102130.84
2018-12-13T02:42:55.283Z,102130.64
2018-12-13T02:45:22.728Z,102127.84
2018-12-13T02:47:50.203Z,102123.11
2018-12-13T02:50:17.659Z,102122.30
2018-12-13T02:52:45.119Z,102122.31
2018-12-13T02:55:13.073Z,102113.81
2018-12-13T02:57:40.576Z,102120.05
2018-12-13T03:00:08.154Z,102117.03
2018-12-13T03:02:35.617Z,102118.02
2018-12-13T03:05:03.290Z,102113.45
2018-12-13T03:07:30.772Z,102113.89
2018-12-13T03:09:58.375Z,102110.16
2018-12-13T03:12:25.822Z,102107.59
2018-12-13T03:14:53.260Z,102116.46
2018-12-13T03:17:20.744Z,102109.74
2018-12-13T03:19:48.199Z,102112.47
2018-12-13T03:22:15.775Z,102101.47
2018-12-13T03:24:43.253Z,102101.77
2018-12-13T03:27:10.731Z,102094.84
2018-12-13T03:29:38.386Z,102090.97
2018-12-13T03:32:05.825Z,102087.09
2018-12-13T03:34:33.286Z,102084.29
2018-12-13T03:37:00.771Z,102076.34
2018-12-13T03:39:28.587Z,102073.16
2018-12-13T03:41:56.076Z,102071.05
2018-12-13T03:44:23.574Z,102070.48
2018-12-13T03:46:51.156Z,102074.51
2018-12-13T03:49:18.635Z,102071.91
2018-12-13T03:51:46.098Z,102071.56
2018-12-13T03:54:13.570Z,102065.86
2018-12-13T03:56:41.060Z,102062.82
2018-12-13T03:59:08.532Z,102060.63
2018-12-13T04:01:36.866Z,102067.30
2018-12-13T04:04:04.322Z,102064.08
2018-12-13T04:06:31.790Z,102058.58
2018-12-13T04:08:59.273Z,102058.36
2018-12-13T04:11:26.724Z,102057.30
2018-12-13T04:13:54.220Z,102057.50
2018-12-13T04:16:21.659Z,102052.84
2018-12-13T04:18:49.110Z,102051.70
2018-12-13T04:21:16.595Z,102057.75
2018-12-13T04:23:44.045Z,102058.90
2018-12-13T04:26:11.535Z,102053.36
2018-12-13T04:28:39.235Z,102054.34
2018-12-13T04:31:06.716Z,102049.95
2018-12-13T04:33:34.276Z,102057.40
2018-12-13T04:36:01.769Z,102048.98
2018-12-13T04:38:29.343Z,102054.22
2018-12-13T04:40:56.768Z,102049.59
2018-12-13T04:43:24.256Z,102045.39
2018-12-13T04:45:51.726Z,102046.78
2018-12-13T04:48:19.213Z,102043.41
2018-12-13T04:50:46.661Z,102046.58
2018-12-13T04:53:14.143Z,102040.39
2018-12-13T04:55:41.595Z,102039.34
2018-12-13T04:58:09.068Z,102037.95
2018-12-13T05:00:36.555Z,102033.73
2018-12-13T05:03:03.998Z,102031.33
2018-12-13T05:05:31.497Z,102035.27
2018-12-13T05:07:59.587Z,102037.35
2018-12-13T05:10:39.042Z,102038.23
2018-12-13T05:13:06.509Z,102028.32
2018-12-13T05:15:34.005Z,102043.48
2018-12-13T05:18:01.479Z,102045.07
2018-12-13T05:20:29.700Z,102039.89
2018-12-13T05:22:57.189Z,102039.89
2018-12-13T05:25:24.693Z,102042.39
2018-12-13T05:27:52.183Z,102034.85
2018-12-13T05:30:19.670Z,102033.64
2018-12-13T05:32:47.146Z,102039.34
2018-12-13T05:35:14.595Z,102035.22
2018-12-13T05:37:48.154Z,102035.14
2018-12-13T05:40:11.763Z,102035.09
2018-12-13T05:42:39.243Z,102051.16
2018-12-13T05:45:07.079Z,102042.39
2018-12-13T05:47:34.563Z,102055.70
2018-12-13T05:50:02.009Z,102051.89
2018-12-13T05:52:30.124Z,102051.38
2018-12-13T05:54:57.598Z,102056.05
2018-12-13T05:57:25.019Z,102058.42
2018-12-13T05:59:52.490Z,102048.89
2018-12-13T06:02:19.980Z,102041.27
2018-12-13T06:04:47.453Z,102049.45
2018-12-13T06:07:14.899Z,102043.34
2018-12-13T06:09:42.379Z,102040.77
2018-12-13T06:12:09.912Z,102034.06
2018-12-13T06:14:37.348Z,102036.56
2018-12-13T06:17:04.844Z,102040.78
2018-12-13T06:19:32.334Z,102039.33
2018-12-13T06:22:00.388Z,102038.80
2018-12-13T06:24:27.863Z,102043.66
2018-12-13T06:26:55.374Z,102039.81
2018-12-13T06:29:22.819Z,102033.84
2018-12-13T06:31:50.285Z,102042.19
2018-12-13T06:34:17.770Z,102043.83
2018-12-13T06:36:45.263Z,102043.05
2018-12-13T06:39:12.704Z,102044.02
2018-12-13T06:41:40.203Z,102037.66
2018-12-13T06:44:07.648Z,102040.72
2018-12-13T06:46:35.116Z,102045.42
2018-12-13T06:49:02.560Z,102041.20
2018-12-13T06:51:30.801Z,102035.50
2018-12-13T06:53:58.267Z,102041.16
2018-12-13T06:56:26.410Z,102036.56
2018-12-13T06:58:53.909Z,102040.05
2018-12-13T07:01:21.340Z,102038.93
2018-12-13T07:03:48.824Z,102037.60
2018-12-13T07:06:16.265Z,102039.55
2018-12-13T07:08:43.879Z,102046.68
2018-12-13T07:11:11.337Z,102043.08
2018-12-13T07:13:38.835Z,102046.81
2018-12-13T07:16:06.320Z,102049.30
2018-12-13T07:18:33.769Z,102052.70
2018-12-13T07:21:01.249Z,102048.98
2018-12-13T07:23:28.703Z,102054.34
2018-12-13T07:25:56.183Z,102062.31
2018-12-13T07:28:23.666Z,102064.59
2018-12-13T07:30:51.119Z,102059.19
2018-12-13T07:33:18.555Z,102064.26
2018-12-13T07:35:46.070Z,102061.47
2018-12-13T07:38:14.407Z,102069.28
2018-12-13T07:40:42.138Z,102072.55
2018-12-13T07:43:09.621Z,102073.52
2018-12-13T07:45:37.074Z,102072.47
2018-12-13T07:48:04.508Z,102078.02
2018-12-13T07:50:31.984Z,102072.45
2018-12-13T07:52:59.440Z,102074.73
2018-12-13T07:55:26.889Z,102078.68
2018-12-13T07:57:54.368Z,102080.66
2018-12-13T08:00:21.845Z,102073.96
2018-12-13T08:02:49.351Z,102072.30
2018-12-13T08:05:16.818Z,102074.98
2018-12-13T08:07:44.288Z,102080.03
2018-12-13T08:10:11.741Z,102083.22
2018-12-13T08:12:39.258Z,102081.61
2018-12-13T08:15:06.893Z,102083.56
2018-12-13T08:17:34.345Z,102083.93
2018-12-13T08:20:01.809Z,102083.25
2018-12-13T08:22:29.308Z,102089.59
2018-12-13T08:24:56.805Z,102082.61
2018-12-13T08:27:24.320Z,102086.57
2018-12-13T08:29:51.774Z,102092.31
2018-12-13T08:32:19.262Z,102089.68
2018-12-13T08:34:46.713Z,102089.82
2018-12-13T08:37:14.191Z,102089.62
2018-12-13T08:39:41.722Z,102085.02
2018-12-13T08:42:09.244Z,102082.52
2018-12-13T08:44:36.684Z,102084.45
2018-12-13T08:47:04.190Z,102085.52
2018-12-13T08:49:31.981Z,102089.53
2018-12-13T08:51:59.944Z,102088.20
2018-12-13T08:54:27.434Z,102081.83
2018-12-13T08:56:54.896Z,102080.45
2018-12-13T08:59:22.379Z,102081.41
2018-12-13T09:01:49.820Z,102083.23
2018-12-13T09:04:17.295Z,102080.87
2018-12-13T09:06:44.734Z,102078.19
2018-12-13T09:09:12.246Z,102082.80
2018-12-13T09:11:39.853Z,102078.38
2018-12-13T09:14:07.388Z,102085.70
2018-12-13T09:16:34.888Z,102084.20
2018-12-13T09:19:02.400Z,102076.42
2018-12-13T09:21:29.851Z,102073.52
2018-12-13T09:23:57.334Z,102080.81
2018-12-13T09:26:24.796Z,102076.08
2018-12-13T09:28:52.271Z,102073.21
2018-12-13T09:31:19.722Z,102082.94
2018-12-13T09:33:47.221Z,102076.18
2018-12-13T09:36:14.711Z,102073.19
2018-12-13T09:38:42.189Z,102073.58
2018-12-13T09:41:09.685Z,102073.99
2018-12-13T09:43:37.175Z,102071.28
2018-12-13T09:46:04.666Z,102072.59
2018-12-13T09:48:32.696Z,102069.97
2018-12-13T09:51:00.114Z,102067.32
2018-12-13T09:53:27.596Z,102061.55
2018-12-13T09:55:55.036Z,102062.48
2018-12-13T09:58:22.520Z,102057.55
2018-12-13T10:00:50.122Z,102058.86
2018-12-13T10:03:17.659Z,102054.84
2018-12-13T10:05:45.156Z,102051.70
2018-12-13T10:08:12.600Z,102051.50
2018-12-13T10:10:40.083Z,102041.13
2018-12-13T10:13:07.550Z,102044.22
2018-12-13T10:15:34.996Z,102049.81
2018-12-13T10:18:02.945Z,102046.45
2018-12-13T10:20:30.453Z,102036.23
2018-12-13T10:22:57.916Z,102038.61
2018-12-13T10:25:25.377Z,102032.68
2018-12-13T10:27:52.845Z,102021.16
2018-12-13T10:30:20.315Z,102026.35
2018-12-13T10:32:47.915Z,102024.69
2018-12-13T10:35:15.389Z,102022.98
2018-12-13T10:37:42.869Z,102019.63
2018-12-13T10:40:10.345Z,102017.28
2018-12-13T10:42:37.819Z,102016.94
2018-12-13T10:45:06.005Z,102014.24
2018-12-13T10:47:33.450Z,102016.13
2018-12-13T10:50:00.898Z,102012.76
2018-12-13T10:52:28.379Z,102004.15
2018-12-13T10:54:55.804Z,102001.86
2018-12-13T10:57:23.282Z,101991.44
2018-12-13T10:59:50.803Z,101996.19
2018-12-13T11:02:23.812Z,101999.21
2018-12-13T11:04:51.297Z,101987.23
2018-12-13T11:07:18.765Z,101988.55
2018-12-13T11:09:46.289Z,101985.62
2018-12-13T11:12:13.762Z,101981.73
2018-12-13T11:14:41.209Z,101981.46
2018-12-13T11:17:08.689Z,101984.14
2018-12-13T11:19:36.172Z,101983.14
2018-12-13T11:22:03.761Z,101981.91
2018-12-13T11:24:31.239Z,101975.66
2018-12-13T11:27:19.368Z,101978.35
2018-12-13T11:30:03.843Z,101978.28
2018-12-13T11:32:31.313Z,101980.72
2018-12-13T11:34:59.439Z,101974.19
2018-12-13T11:37:26.878Z,101980.66
2018-12-13T11:39:54.394Z,101978.48
2018-12-13T11:42:21.917Z,101969.51
2018-12-13T11:44:49.426Z,101966.99
2018-12-13T11:47:16.909Z,101961.50
2018-12-13T11:49:44.367Z,101948.95
2018-12-13T11:52:11.852Z,101948.86
2018-12-13T11:54:39.698Z,101948.55
2018-12-13T11:57:07.193Z,101954.88
2018-12-13T11:59:34.643Z,101950.59
2018-12-13T12:02:02.152Z,101949.11
2018-12-13T12:04:29.607Z,101952.20
2018-12-13T12:06:57.103Z,101952.20
2018-12-13T12:09:24.552Z,101941.82
2018-12-13T12:11:52.013Z,101942.45
2018-12-13T12:14:19.477Z,101940.20
2018-12-13T12:16:46.947Z,101944.64
2018-12-13T12:19:14.420Z,101937.25
2018-12-13T12:21:41.849Z,101932.84
2018-12-13T12:24:09.374Z,101933.73
2018-12-13T12:26:36.908Z,101934.36
2018-12-13T12:29:04.347Z,101933.07
2018-12-13T12:31:31.878Z,101926.19
2018-12-13T12:33:59.303Z,101918.07
2018-12-13T12:36:26.764Z,101922.92
2018-12-13T12:38:54.219Z,101917.59
2018-12-13T12:41:21.698Z,101913.88
2018-12-13T12:43:49.174Z,101916.57
2018-12-13T12:46:16.636Z,101922.07
2018-12-13T12:48:44.092Z,101917.30
2018-12-13T12:51:11.593Z,101916.31
2018-12-13T12:53:39.049Z,101905.16
2018-12-13T12:56:06.512Z,101904.52
2018-12-13T12:58:34.522Z,101905.42
2018-12-13T13:01:02.845Z,101907.02
2018-12-13T13:03:30.278Z,101907.98
2018-12-13T13:05:57.754Z,101907.89
2018-12-13T13:08:25.205Z,101902.94
2018-12-13T13:10:52.704Z,101894.45
2018-12-13T13:13:20.158Z,101891.42
2018-12-13T13:15:47.612Z,101892.19
2018-12-13T13:18:15.072Z,101885.77
2018-12-13T13:20:42.552Z,101891.70
2018-12-13T13:23:09.985Z,101889.47
2018-12-13T13:25:37.468Z,101892.48
2018-12-13T13:28:04.943Z,101885.57
2018-12-13T13:30:32.399Z,101886.44
2018-12-13T13:33:00.000Z,101887.34
2018-12-13T13:35:27.439Z,101883.36
2018-12-13T13:37:54.928Z,101888.34
2018-12-13T13:40:22.910Z,101889.88
2018-12-13T13:42:50.378Z,101882.34
2018-12-13T13:45:18.028Z,101878.48
2018-12-13T13:47:45.528Z,101890.08
2018-12-13T13:50:12.999Z,101880.50
2018-12-13T13:52:40.477Z,101888.86
2018-12-13T13:55:07.939Z,101884.74
2018-12-13T13:57:35.448Z,101880.36
2018-12-13T14:00:04.410Z,101879.24
2018-12-13T14:02:31.858Z,101885.06
2018-12-13T14:04:59.350Z,101877.87
2018-12-13T14:07:26.849Z,101886.58
2018-12-13T14:09:54.298Z,101882.65
2018-12-13T14:12:21.936Z,101886.30
2018-12-13T14:14:49.394Z,101889.36
2018-12-13T14:17:16.870Z,101893.02
2018-12-13T14:19:44.309Z,101899.43
2018-12-13T14:22:11.803Z,101893.37
2018-12-13T14:24:39.265Z,101900.15
2018-12-13T14:27:06.838Z,101898.93
2018-12-13T14:29:34.293Z,101897.65
2018-12-13T14:32:02.295Z,101906.48
2018-12-13T14:34:29.735Z,101897.87
2018-12-13T14:36:57.224Z,101901.70
2018-12-13T14:39:24.663Z,101906.23
2018-12-13T14:41:52.113Z,101902.94
2018-12-13T14:44:19.595Z,101902.14
2018-12-13T14:46:47.048Z,101904.44
2018-12-13T14:49:14.539Z,101907.16
2018-12-13T14:51:41.989Z,101910.55
2018-12-13T14:54:09.518Z,101902.95
2018-12-13T14:56:36.962Z,101902.45
2018-12-13T14:59:04.559Z,101909.56
2018-12-13T15:01:32.132Z,101906.34
2018-12-13T15:03:59.624Z,101916.59
2018-12-13T15:06:27.085Z,101905.95
2018-12-13T15:08:54.568Z,101909.98
2018-12-13T15:11:22.038Z,101914.65
2018-12-13T15:13:49.473Z,101903.70
2018-12-13T15:16:16.948Z,101912.20
2018-12-13T15:18:44.435Z,101919.34
2018-12-13T15:21:11.883Z,101916.37
2018-12-13T15:23:39.384Z,101913.37
2018-12-13T15:26:06.849Z,101908.28
2018-12-13T15:28:34.344Z,101912.72
2018-12-13T15:31:01.814Z,101911.66
2018-12-13T15:33:29.308Z,101911.95
2018-12-13T15:35:56.892Z,101915.14
2018-12-13T15:38:24.372Z,101916.88
2018-12-13T15:40:51.813Z,101920.44
2018-12-13T15:43:19.275Z,101925.80
2018-12-13T15:45:46.747Z,101924.55
2018-12-13T15:48:14.235Z,101926.53
2018-12-13T15:50:41.745Z,101925.52
2018-12-13T15:53:09.225Z,101925.11
2018-12-13T15:55:36.699Z,101921.31
2018-12-13T15:58:04.298Z,101921.61
2018-12-13T16:00:31.791Z,101923.19
2018-12-13T16:02:59.269Z,101923.07
2018-12-13T16:05:26.722Z,101928.72
2018-12-13T16:07:55.067Z,101931.37
2018-12-13T16:10:22.520Z,101925.35
2018-12-13T16:12:49.973Z,101923.77
2018-12-13T16:15:17.439Z,101918.88
2018-12-13T16:17:44.958Z,101920.02
2018-12-13T16:20:12.410Z,101917.67
2018-12-13T16:22:39.858Z,101912.44
2018-12-13T16:25:07.432Z,101911.45
2018-12-13T16:27:34.894Z,101915.31
2018-12-13T16:30:02.707Z,101910.88
2018-12-13T16:32:30.175Z,101919.73
2018-12-13T16:34:57.624Z,101917.37
2018-12-13T16:37:25.110Z,101915.55
2018-12-13T16:39:52.575Z,101917.05
2018-12-13T16:42:20.041Z,101923.52
2018-12-13T16:44:47.489Z,101920.48
2018-12-13T16:47:14.930Z,101923.00
2018-12-13T16:49:42.433Z,101920.89
2018-12-13T16:52:09.913Z,101922.75
2018-12-13T16:54:37.367Z,101918.56
2018-12-13T16:57:05.262Z,101917.22
2018-12-13T16:59:32.738Z,101926.39
2018-12-13T17:02:00.214Z,101927.05
2018-12-13T17:04:27.712Z,101936.50
2018-12-13T17:06:55.170Z,101930.24
2018-12-13T17:09:22.646Z,101933.21
2018-12-13T17:11:50.105Z,101930.02
2018-12-13T17:14:17.594Z,101925.63
2018-12-13T17:16:45.041Z,101930.62
2018-12-13T17:19:12.543Z,101916.12
2018-12-13T17:21:39.975Z,101911.41
2018-12-13T17:24:07.489Z,101916.22
2018-12-13T17:26:35.019Z,101910.89
2018-12-13T17:29:02.495Z,101910.52
2018-12-13T17:31:29.958Z,101909.82
2018-12-13T17:33:57.453Z,101910.11
2018-12-13T17:36:24.894Z,101910.66
2018-12-13T17:38:52.763Z,101913.58
2018-12-13T17:41:20.215Z,101916.95
2018-12-13T17:43:47.669Z,101908.40
2018-12-13T17:46:15.158Z,101916.10
2018-12-13T17:48:42.613Z,101920.89
2018-12-13T17:51:10.070Z,101918.16
2018-12-13T17:53:37.572Z,101913.15
2018-12-13T17:56:05.032Z,101916.02
2018-12-13T17:58:32.499Z,101912.61
2018-12-13T18:00:59.963Z,101906.68
2018-12-13T18:03:27.429Z,101915.86
2018-12-13T18:05:54.883Z,101931.70
2018-12-13T18:08:22.359Z,101925.03
2018-12-13T18:10:49.859Z,101929.50
2018-12-13T18:13:17.314Z,101928.34
2018-12-13T18:15:44.848Z,101929.48
2018-12-13T18:18:12.338Z,101935.27
2018-12-13T18:20:39.799Z,101926.52
2018-12-13T18:23:07.779Z,101926.45
2018-12-13T18:25:35.273Z,101925.92
2018-12-13T18:28:02.732Z,101922.16
2018-12-13T18:30:30.216Z,101919.03
2018-12-13T18:32:57.688Z,101917.24
2018-12-13T18:35:25.163Z,101922.95
2018-12-13T18:37:52.634Z,101921.61
2018-12-13T18:40:20.159Z,101917.53
2018-12-13T18:42:47.601Z,101921.87
2018-12-13T18:45:15.104Z,101918.39
2018-12-13T18:47:42.584Z,101916.74
2018-12-13T18:50:10.055Z,101923.25
2018-12-13T18:52:37.956Z,101924.38
2018-12-13T18:55:05.548Z,101920.27
2018-12-13T18:57:33.583Z,101922.56
2018-12-13T19:00:01.089Z,101921.77
2018-12-13T19:02:28.533Z,101923.23
2018-12-13T19:04:56.010Z,101921.25
2018-12-13T19:07:23.452Z,101922.59
2018-12-13T19:09:51.027Z,101931.37
2018-12-13T19:12:18.492Z,101930.55
2018-12-13T19:14:45.964Z,101927.83
2018-12-13T19:17:13.508Z,101932.91
2018-12-13T19:19:41.023Z,101938.03
2018-12-13T19:22:08.541Z,101936.69
2018-12-13T19:24:35.997Z,101943.41
2018-12-13T19:27:03.682Z,101939.78
2018-12-13T19:29:31.203Z,101949.53
2018-12-13T19:31:58.692Z,101953.36
2018-12-13T19:34:26.154Z,101952.28
2018-12-13T19:36:53.631Z,101955.70
2018-12-13T19:39:21.112Z,101959.89
2018-12-13T19:41:48.572Z,101965.19
2018-12-13T19:44:16.110Z,101972.09
2018-12-13T19:46:43.557Z,101967.98
2018-12-13T19:49:11.033Z,101963.34
2018-12-13T19:51:38.570Z,101965.83
2018-12-13T19:54:06.038Z,101974.59
2018-12-13T19:56:33.552Z,101970.42
2018-12-13T19:59:01.043Z,101970.09
2018-12-13T20:01:28.491Z,101980.67
2018-12-13T20:03:55.962Z,101971.05
2018-12-13T20:06:23.448Z,101971.90
2018-12-13T20:08:50.918Z,101969.92
2018-12-13T20:11:18.401Z,101968.58
2018-12-13T20:13:45.838Z,101970.08
2018-12-13T20:16:13.321Z,101973.78
2018-12-13T20:18:40.763Z,101978.67
2018-12-13T20:21:08.671Z,101985.92
2018-12-13T20:23:36.882Z,101987.81
2018-12-13T20:26:04.488Z,101990.88
2018-12-13T20:28:31.981Z,101992.41
2018-12-13T20:30:59.447Z,101994.91
2018-12-13T20:33:26.934Z,101999.05
2018-12-13T20:35:54.378Z,102004.50
2018-12-13T20:38:21.860Z,102001.48
2018-12-13T20:40:49.311Z,102001.63
2018-12-13T20:43:16.796Z,102008.98
2018-12-13T20:45:44.277Z,102000.34
2018-12-13T20:48:11.761Z,102008.28
2018-12-13T20:50:39.203Z,102012.42
2018-12-13T20:53:06.734Z,102012.27
2018-12-13T20:55:34.222Z,102017.16
2018-12-13T20:58:01.774Z,102023.17
2018-12-13T21:00:29.239Z,102020.29
2018-12-13T21:02:56.755Z,102028.16
2018-12-13T21:05:24.236Z,102029.38
2018-12-13T21:07:53.703Z,102035.15
2018-12-13T21:10:21.243Z,102025.77
2018-12-13T21:12:48.703Z,102022.52
2018-12-13T21:15:16.191Z,102019.56
2018-12-13T21:17:43.640Z,102023.84
2018-12-13T21:20:11.128Z,102025.23
2018-12-13T21:22:39.327Z,102027.20
2018-12-13T21:25:06.896Z,102026.25
2018-12-13T21:27:34.335Z,102024.91
2018-12-13T21:30:01.856Z,102017.22
2018-12-13T21:32:29.332Z,102013.64
2018-12-13T21:34:56.808Z,102006.95
2018-12-13T21:37:24.325Z,102008.81
2018-12-13T21:39:51.879Z,102010.31
2018-12-13T21:42:19.338Z,102012.63
2018-12-13T21:44:46.775Z,102009.29
2018-12-13T21:47:14.283Z,102010.84
2018-12-13T21:49:41.747Z,102012.84
2018-12-13T21:52:09.593Z,102007.67
2018-12-13T21:54:37.081Z,102011.19
2018-12-13T21:57:04.872Z,102004.88
2018-12-13T21:59:32.369Z,102003.97
2018-12-13T22:01:59.810Z,102007.23
2018-12-13T22:04:27.793Z,102006.75
2018-12-13T22:06:55.902Z,102003.05
2018-12-13T22:09:23.366Z,102009.91
2018-12-13T22:11:50.942Z,102012.63
2018-12-13T22:14:18.412Z,102016.63
2018-12-13T22:16:45.874Z,102016.92
2018-12-13T22:19:13.350Z,102019.61
2018-12-13T22:21:40.796Z,102023.17
2018-12-13T22:24:08.290Z,102020.59
2018-12-13T22:26:35.778Z,102018.90
2018-12-13T22:29:03.256Z,102011.09
2018-12-13T22:31:30.741Z,102014.48
2018-12-13T22:33:58.207Z,102012.05
2018-12-13T22:36:25.682Z,102014.67
2018-12-13T22:38:53.150Z,102007.63
2018-12-13T22:41:26.242Z,102013.22
2018-12-13T22:43:50.123Z,102011.64
2018-12-13T22:46:17.611Z,102010.47
2018-12-13T22:48:45.126Z,102006.70
2018-12-13T22:51:12.565Z,102009.56
2018-12-13T22:53:40.091Z,102004.00
2018-12-13T22:56:07.569Z,102007.17
2018-12-13T22:58:35.041Z,102005.34
2018-12-13T23:01:02.539Z,102004.02
2018-12-13T23:03:30.096Z,102005.41
2018-12-13T23:05:57.535Z,102002.51
2018-12-13T23:08:25.030Z,102006.47
2018-12-13T23:10:52.596Z,102003.73
2018-12-13T23:13:20.039Z,101999.26
2018-12-13T23:15:47.563Z,101999.60
2018-12-13T23:18:15.005Z,102003.60
2018-12-13T23:20:42.486Z,102007.84
2018-12-13T23:23:10.393Z,102009.47
2018-12-13T23:25:37.841Z,102006.66
2018-12-13T23:28:05.332Z,102013.96
2018-12-13T23:30:32.781Z,102006.70
2018-12-13T23:33:00.299Z,102002.36
2018-12-13T23:35:27.744Z,101995.03
2018-12-13T23:37:55.235Z,101988.81
2018-12-13T23:40:22.686Z,101996.64
2018-12-13T23:42:50.140Z,101993.05
2018-12-13T23:45:17.630Z,101998.51
2018-12-13T23:47:45.114Z,101997.94
2018-12-13T23:50:12.581Z,101993.86
2018-12-13T23:52:40.656Z,101983.59
2018-12-13T23:55:08.249Z,101996.98
2018-12-13T23:57:35.742Z,101999.77
